Авиационная погода в Пулково

Регион: 
Погода METAR: 
ULLI 282200Z 11003MPS 9999 FEW046CB 19/13 Q1023 R10R/090060 TEMPO -TSRA BKN016CB
Время наблюдения
2022-06-28T22:00:00Z
Температура C
19.0
Точка росы
13.0
Направление ветра
110
Скорость ветра (узлы)
6
Метео видимость
6.21
Облачность
FEW
Нижняя граница облачности (футы)
4600
Явления погоды
Условия полета
VFR
Аэропорт подробнее: 
FEW – незначительная облачность;